createdAt,value
2019-01-23T00:00:41.061Z,24.10
2019-01-23T00:01:41.020Z,24.20
2019-01-23T00:02:40.971Z,23.60
2019-01-23T00:03:40.930Z,24.70
2019-01-23T00:04:40.882Z,24.20
2019-01-23T00:05:40.833Z,23.60
2019-01-23T00:06:40.787Z,23.40
2019-01-23T00:07:40.751Z,23.80
2019-01-23T00:08:40.701Z,25.00
2019-01-23T00:09:40.651Z,24.30
2019-01-23T00:10:40.606Z,24.40
2019-01-23T00:11:40.560Z,24.40
2019-01-23T00:12:40.521Z,23.10
2019-01-23T00:13:40.473Z,24.00
2019-01-23T00:14:40.433Z,24.20
2019-01-23T00:15:40.384Z,24.00
2019-01-23T00:16:40.340Z,24.40
2019-01-23T00:17:40.292Z,24.50
2019-01-23T00:18:40.246Z,24.20
2019-01-23T00:19:40.200Z,23.80
2019-01-23T00:20:40.157Z,22.90
2019-01-23T00:21:40.116Z,24.80
2019-01-23T00:22:40.071Z,24.10
2019-01-23T00:23:40.021Z,23.60
2019-01-23T00:24:39.975Z,24.70
2019-01-23T00:25:39.933Z,24.50
2019-01-23T00:26:39.891Z,24.50
2019-01-23T00:27:39.848Z,25.30
2019-01-23T00:28:42.461Z,24.10
2019-01-23T00:29:39.751Z,25.10
2019-01-23T00:30:39.700Z,24.80
2019-01-23T00:31:39.660Z,23.70
2019-01-23T00:32:39.614Z,24.20
2019-01-23T00:33:39.571Z,24.80
2019-01-23T00:34:39.530Z,24.00
2019-01-23T00:35:39.484Z,24.60
2019-01-23T00:36:39.437Z,24.60
2019-01-23T00:37:39.390Z,25.00
2019-01-23T00:38:39.349Z,24.60
2019-01-23T00:39:39.305Z,24.80
2019-01-23T00:40:39.256Z,25.70
2019-01-23T00:41:39.209Z,25.50
2019-01-23T00:42:39.166Z,24.60
2019-01-23T00:43:39.118Z,25.30
2019-01-23T00:44:39.080Z,24.90
2019-01-23T00:45:39.032Z,25.50
2019-01-23T00:46:38.984Z,24.60
2019-01-23T00:47:38.942Z,24.90
2019-01-23T00:48:38.893Z,25.50
2019-01-23T00:49:38.851Z,25.10
2019-01-23T00:50:38.799Z,26.20
2019-01-23T00:51:38.756Z,25.80
2019-01-23T00:52:38.711Z,24.90
2019-01-23T00:53:38.666Z,23.60
2019-01-23T00:54:38.624Z,23.80
2019-01-23T00:55:38.571Z,25.90
2019-01-23T00:56:38.532Z,25.40
2019-01-23T00:57:38.489Z,25.50
2019-01-23T00:58:38.448Z,25.50
2019-01-23T00:59:38.402Z,25.90
2019-01-23T01:00:38.351Z,25.80
2019-01-23T01:01:38.303Z,25.60
2019-01-23T01:02:38.257Z,27.10
2019-01-23T01:03:38.213Z,24.90
2019-01-23T01:04:38.171Z,26.90
2019-01-23T01:05:38.131Z,26.30
2019-01-23T01:06:38.085Z,26.30
2019-01-23T01:07:38.039Z,27.00
2019-01-23T01:08:37.999Z,26.70
2019-01-23T01:09:37.946Z,26.00
2019-01-23T01:10:37.896Z,26.90
2019-01-23T01:11:37.862Z,26.00
2019-01-23T01:12:37.809Z,27.20
2019-01-23T01:13:37.764Z,26.90
2019-01-23T01:14:37.716Z,25.80
2019-01-23T01:15:37.684Z,27.40
2019-01-23T01:16:37.626Z,26.80
2019-01-23T01:17:37.591Z,25.40
2019-01-23T01:18:37.541Z,26.80
2019-01-23T01:19:37.496Z,26.10
2019-01-23T01:20:37.447Z,27.80
2019-01-23T01:21:37.404Z,26.60
2019-01-23T01:22:37.352Z,26.50
2019-01-23T01:23:37.308Z,26.00
2019-01-23T01:24:37.266Z,26.50
2019-01-23T01:25:37.223Z,26.10
2019-01-23T01:26:37.182Z,25.90
2019-01-23T01:27:37.131Z,27.50
2019-01-23T01:28:37.081Z,27.10
2019-01-23T01:29:37.046Z,26.90
2019-01-23T01:30:36.999Z,27.40
2019-01-23T01:31:36.952Z,25.50
2019-01-23T01:32:36.906Z,26.50
2019-01-23T01:33:36.861Z,26.30
2019-01-23T01:34:36.813Z,26.70
2019-01-23T01:35:36.770Z,26.00
2019-01-23T01:36:36.725Z,26.60
2019-01-23T01:37:36.688Z,26.80
2019-01-23T01:38:36.638Z,26.00
2019-01-23T01:39:36.592Z,26.20
2019-01-23T01:40:36.543Z,26.10
2019-01-23T01:41:36.499Z,25.40
2019-01-23T01:42:36.449Z,25.20
2019-01-23T01:43:36.409Z,26.20
2019-01-23T01:44:36.363Z,27.00
2019-01-23T01:45:36.316Z,26.50
2019-01-23T01:46:36.267Z,26.20
2019-01-23T01:47:36.223Z,25.00
2019-01-23T01:48:36.180Z,25.50
2019-01-23T01:49:36.136Z,26.00
2019-01-23T01:50:36.095Z,26.80
2019-01-23T01:51:36.052Z,27.60
2019-01-23T01:52:36.000Z,25.80
2019-01-23T01:53:35.955Z,26.40
2019-01-23T01:54:35.907Z,27.00
2019-01-23T01:55:35.861Z,26.60
2019-01-23T01:56:35.815Z,26.50
2019-01-23T01:57:35.775Z,26.40
2019-01-23T01:58:35.733Z,25.30
2019-01-23T01:59:35.708Z,25.70
2019-01-23T02:00:35.638Z,25.70
2019-01-23T02:01:35.596Z,25.70
2019-01-23T02:02:35.552Z,26.30
2019-01-23T02:03:35.508Z,26.90
2019-01-23T02:04:35.462Z,26.10
2019-01-23T02:05:35.408Z,26.10
2019-01-23T02:06:35.375Z,26.10
2019-01-23T02:07:35.321Z,25.90
2019-01-23T02:08:35.279Z,24.20
2019-01-23T02:09:35.540Z,24.70
2019-01-23T02:10:35.194Z,25.40
2019-01-23T02:11:35.150Z,25.20
2019-01-23T02:12:35.098Z,25.40
2019-01-23T02:13:35.050Z,26.50
2019-01-23T02:14:35.006Z,25.90
2019-01-23T02:15:34.968Z,26.00
2019-01-23T02:16:34.918Z,25.60
2019-01-23T02:17:34.872Z,26.20
2019-01-23T02:18:34.823Z,26.50
2019-01-23T02:19:34.778Z,26.20
2019-01-23T02:20:34.733Z,26.70
2019-01-23T02:21:34.692Z,26.30
2019-01-23T02:22:34.649Z,27.40
2019-01-23T02:23:34.627Z,27.00
2019-01-23T02:24:34.557Z,26.60
2019-01-23T02:25:34.511Z,26.60
2019-01-23T02:26:34.468Z,26.10
2019-01-23T02:27:34.416Z,26.50
2019-01-23T02:28:34.374Z,27.20
2019-01-23T02:29:34.330Z,27.40
2019-01-23T02:30:34.289Z,26.50
2019-01-23T02:31:34.238Z,27.60
2019-01-23T02:32:34.195Z,27.90
2019-01-23T02:33:34.152Z,27.00
2019-01-23T02:34:34.111Z,26.40
2019-01-23T02:35:34.070Z,27.40
2019-01-23T02:36:34.015Z,27.30
2019-01-23T02:37:33.972Z,27.80
2019-01-23T02:38:33.921Z,28.20
2019-01-23T02:39:33.874Z,27.40
2019-01-23T02:40:33.834Z,27.90
2019-01-23T02:41:33.792Z,27.40
2019-01-23T02:42:33.745Z,27.30
2019-01-23T02:43:33.703Z,27.20
2019-01-23T02:44:33.658Z,27.80
2019-01-23T02:45:33.609Z,27.20
2019-01-23T02:46:33.559Z,26.00
2019-01-23T02:47:33.528Z,27.10
2019-01-23T02:48:33.472Z,27.10
2019-01-23T02:49:33.428Z,28.20
2019-01-23T02:50:33.382Z,28.10
2019-01-23T02:51:33.338Z,28.30
2019-01-23T02:52:33.293Z,28.80
2019-01-23T02:53:33.250Z,28.60
2019-01-23T02:54:33.207Z,25.90
2019-01-23T02:55:33.162Z,28.00
2019-01-23T02:56:33.128Z,28.80
2019-01-23T02:57:33.075Z,27.30
2019-01-23T02:58:33.019Z,28.00
2019-01-23T02:59:32.973Z,28.20
2019-01-23T03:00:32.929Z,27.70
2019-01-23T03:01:32.888Z,27.80
2019-01-23T03:02:32.844Z,28.60
2019-01-23T03:03:32.792Z,28.90
2019-01-23T03:04:32.755Z,29.40
2019-01-23T03:05:32.728Z,28.10
2019-01-23T03:06:32.665Z,29.70
2019-01-23T03:07:32.618Z,30.60
2019-01-23T03:08:32.572Z,28.30
2019-01-23T03:09:32.526Z,30.10
2019-01-23T03:10:32.479Z,28.50
2019-01-23T03:11:32.441Z,29.00
2019-01-23T03:12:32.385Z,27.40
2019-01-23T03:13:32.342Z,28.20
2019-01-23T03:14:32.295Z,28.80
2019-01-23T03:15:32.265Z,28.30
2019-01-23T03:16:32.208Z,29.30
2019-01-23T03:17:32.167Z,28.00
2019-01-23T03:18:32.125Z,28.10
2019-01-23T03:19:32.080Z,28.80
2019-01-23T03:20:32.028Z,27.70
2019-01-23T03:21:31.981Z,29.00
2019-01-23T03:22:31.941Z,27.40
2019-01-23T03:23:31.895Z,27.50
2019-01-23T03:24:31.844Z,28.60
2019-01-23T03:25:31.799Z,28.10
2019-01-23T03:26:31.754Z,29.10
2019-01-23T03:27:31.707Z,27.20
2019-01-23T03:28:31.669Z,27.80
2019-01-23T03:29:31.630Z,27.70
2019-01-23T03:30:31.580Z,28.10
2019-01-23T03:31:31.534Z,27.80
2019-01-23T03:32:31.486Z,29.70
2019-01-23T03:33:31.439Z,28.40
2019-01-23T03:34:31.390Z,28.70
2019-01-23T03:35:31.353Z,29.00
2019-01-23T03:36:31.304Z,27.70
2019-01-23T03:37:31.263Z,29.40
2019-01-23T03:38:31.208Z,28.60
2019-01-23T03:39:31.172Z,27.60
2019-01-23T03:40:31.123Z,28.20
2019-01-23T03:41:31.079Z,28.10
2019-01-23T03:42:31.034Z,29.30
2019-01-23T03:43:30.991Z,27.30
2019-01-23T03:44:30.970Z,27.90
2019-01-23T03:45:30.895Z,28.60
2019-01-23T03:46:30.847Z,29.30
2019-01-23T03:47:30.801Z,28.10
2019-01-23T03:48:30.761Z,27.40
2019-01-23T03:49:30.716Z,28.00
2019-01-23T03:50:30.674Z,28.10
2019-01-23T03:51:30.620Z,28.50
2019-01-23T04:06:41.793Z,20.70
2019-01-23T04:07:41.723Z,19.50
2019-01-23T04:08:41.677Z,27.90
2019-01-23T04:09:41.649Z,30.00
2019-01-23T04:10:41.571Z,29.70
2019-01-23T04:11:41.519Z,30.70
2019-01-23T04:12:41.483Z,31.30
2019-01-23T04:13:41.420Z,32.00
2019-01-23T04:14:41.375Z,31.90
2019-01-23T04:15:41.324Z,29.40
2019-01-23T04:16:41.279Z,27.90
2019-01-23T04:17:41.242Z,28.40
2019-01-23T04:18:41.184Z,29.30
2019-01-23T04:19:41.142Z,29.90
2019-01-23T04:20:41.101Z,28.30
2019-01-23T04:21:41.051Z,30.00
2019-01-23T04:22:41.008Z,31.50
2019-01-23T04:23:40.955Z,28.10
2019-01-23T04:24:40.906Z,28.90
2019-01-23T04:25:40.860Z,30.30
2019-01-23T04:26:40.814Z,29.00
2019-01-23T04:27:40.775Z,28.60
2019-01-23T04:28:40.725Z,27.90
2019-01-23T04:29:40.682Z,29.90
2019-01-23T04:30:40.638Z,30.10
2019-01-23T04:31:40.588Z,27.40
2019-01-23T04:32:40.543Z,27.30
2019-01-23T04:33:40.495Z,28.10
2019-01-23T04:34:40.454Z,27.90
2019-01-23T04:35:40.407Z,29.30
2019-01-23T04:36:40.360Z,29.10
2019-01-23T04:37:40.311Z,27.90
2019-01-23T04:38:40.267Z,28.10
2019-01-23T04:39:40.223Z,28.60
2019-01-23T04:40:40.181Z,28.60
2019-01-23T04:41:40.133Z,28.20
2019-01-23T04:42:40.089Z,28.90
2019-01-23T04:43:40.045Z,28.90
2019-01-23T04:44:39.994Z,27.80
2019-01-23T04:45:39.945Z,28.40
2019-01-23T04:46:39.900Z,28.80
2019-01-23T04:47:39.857Z,26.30
2019-01-23T04:48:39.816Z,28.10
2019-01-23T04:49:39.778Z,29.10
2019-01-23T04:50:39.718Z,27.20
2019-01-23T04:51:39.676Z,27.60
2019-01-23T04:52:39.632Z,27.20
2019-01-23T04:53:39.589Z,25.40
2019-01-23T04:54:39.542Z,28.00
2019-01-23T04:55:39.495Z,28.10
2019-01-23T04:56:39.447Z,27.10
2019-01-23T04:57:39.419Z,26.70
2019-01-23T04:58:39.354Z,26.40
2019-01-23T04:59:39.311Z,26.30
2019-01-23T05:00:39.271Z,25.80
2019-01-23T05:01:39.224Z,27.50
2019-01-23T05:02:39.178Z,25.90
2019-01-23T05:03:39.138Z,25.20
2019-01-23T05:04:39.086Z,25.40
2019-01-23T05:05:39.037Z,27.30
2019-01-23T05:06:38.996Z,25.60
2019-01-23T05:07:38.948Z,25.90
2019-01-23T05:08:38.904Z,25.20
2019-01-23T05:09:38.853Z,25.80
2019-01-23T05:10:38.814Z,25.80
2019-01-23T05:11:38.765Z,25.20
2019-01-23T05:12:38.729Z,25.20
2019-01-23T05:13:38.680Z,25.70
2019-01-23T05:14:38.626Z,25.60
2019-01-23T05:15:38.585Z,25.30
2019-01-23T05:16:38.541Z,26.10
2019-01-23T05:17:38.495Z,26.50
2019-01-23T05:18:38.452Z,25.00
2019-01-23T05:19:38.407Z,25.60
2019-01-23T05:20:38.356Z,24.40
2019-01-23T05:21:38.308Z,27.10
2019-01-23T05:22:38.269Z,25.50
2019-01-23T05:23:38.224Z,25.60
2019-01-23T05:24:38.179Z,25.70
2019-01-23T05:25:38.128Z,25.40
2019-01-23T05:26:38.081Z,24.50
2019-01-23T05:27:38.039Z,26.10
2019-01-23T05:28:37.994Z,26.00
2019-01-23T05:29:37.958Z,25.20
2019-01-23T05:30:37.905Z,24.60
2019-01-23T05:31:37.861Z,25.70
2019-01-23T05:32:37.810Z,25.90
2019-01-23T05:33:37.770Z,24.60
2019-01-23T05:34:37.719Z,24.20
2019-01-23T05:35:37.683Z,25.10
2019-01-23T05:36:37.651Z,24.20
2019-01-23T05:37:37.587Z,23.50
2019-01-23T05:38:37.538Z,24.40
2019-01-23T05:39:37.493Z,25.10
2019-01-23T05:40:37.450Z,25.50
2019-01-23T05:41:37.407Z,25.20
2019-01-23T05:42:37.362Z,25.30
2019-01-23T05:43:37.316Z,25.80
2019-01-23T05:44:37.267Z,24.20
2019-01-23T05:45:37.219Z,24.60
2019-01-23T05:46:37.173Z,24.50
2019-01-23T05:47:37.130Z,25.10
2019-01-23T05:48:37.088Z,24.20
2019-01-23T05:49:37.045Z,23.60
2019-01-23T05:50:36.999Z,24.90
2019-01-23T05:51:36.954Z,25.00
2019-01-23T05:52:36.903Z,24.10
2019-01-23T05:53:36.863Z,24.20
2019-01-23T05:54:36.817Z,23.30
2019-01-23T05:55:36.772Z,25.30
2019-01-23T05:56:36.723Z,24.70
2019-01-23T05:57:36.674Z,24.80
2019-01-23T05:58:36.629Z,24.50
2019-01-23T05:59:36.586Z,23.90
2019-01-23T06:00:36.544Z,23.10
2019-01-23T06:01:36.498Z,23.90
2019-01-23T06:02:36.454Z,24.40
2019-01-23T06:03:36.409Z,24.50
2019-01-23T06:04:36.360Z,22.60
2019-01-23T06:05:36.312Z,24.30
2019-01-23T06:06:36.267Z,24.40
2019-01-23T06:07:36.223Z,24.50
2019-01-23T06:08:36.179Z,24.80
2019-01-23T06:09:36.135Z,25.50
2019-01-23T06:10:36.086Z,24.30
2019-01-23T06:11:36.042Z,23.60
2019-01-23T06:12:35.999Z,23.40
2019-01-23T06:13:35.958Z,24.50
2019-01-23T06:14:35.913Z,23.90
2019-01-23T06:15:35.862Z,24.50
2019-01-23T06:16:35.819Z,25.20
2019-01-23T06:17:35.768Z,24.40
2019-01-23T06:18:35.725Z,24.30
2019-01-23T06:19:35.679Z,25.70
2019-01-23T06:20:35.659Z,24.50
2019-01-23T06:21:35.593Z,23.40
2019-01-23T06:22:35.549Z,24.40
2019-01-23T06:23:35.499Z,25.00
2019-01-23T06:24:35.463Z,24.40
2019-01-23T06:25:35.407Z,25.20
2019-01-23T06:26:35.365Z,25.70
2019-01-23T06:27:35.354Z,25.40
2019-01-23T06:28:35.271Z,25.00
2019-01-23T06:29:35.224Z,25.90
2019-01-23T06:30:35.179Z,24.50
2019-01-23T06:31:35.136Z,24.30
2019-01-23T06:32:35.092Z,24.30
2019-01-23T06:33:35.061Z,26.10
2019-01-23T06:34:35.003Z,24.10
2019-01-23T06:35:34.956Z,24.70
2019-01-23T06:36:34.910Z,24.80
2019-01-23T06:37:34.869Z,26.20
2019-01-23T06:38:34.816Z,24.10
2019-01-23T06:39:34.773Z,24.40
2019-01-23T06:40:34.760Z,24.80
2019-01-23T06:41:34.688Z,23.30
2019-01-23T06:42:34.635Z,23.00
2019-01-23T06:43:34.617Z,25.30
2019-01-23T06:44:34.551Z,24.40
2019-01-23T06:45:34.509Z,24.80
2019-01-23T06:46:34.463Z,24.60
2019-01-23T06:47:34.417Z,25.00
2019-01-23T06:48:34.367Z,24.20
2019-01-23T06:49:34.317Z,24.00
2019-01-23T06:50:34.283Z,23.60
2019-01-23T06:51:34.230Z,23.60
2019-01-23T06:52:34.194Z,23.80
2019-01-23T06:53:34.144Z,23.60
2019-01-23T06:54:34.099Z,23.10
2019-01-23T06:55:34.054Z,24.00
2019-01-23T06:56:34.001Z,24.30
2019-01-23T06:57:33.956Z,24.40
2019-01-23T06:58:33.916Z,24.40
2019-01-23T06:59:33.869Z,24.20
2019-01-23T07:00:33.824Z,25.30
2019-01-23T07:01:33.775Z,24.30
2019-01-23T07:02:33.730Z,22.40
2019-01-23T07:03:33.687Z,24.40
2019-01-23T07:04:33.642Z,23.70
2019-01-23T07:05:33.599Z,25.30
2019-01-23T07:06:33.555Z,23.50
2019-01-23T07:07:33.591Z,23.30
2019-01-23T07:08:33.462Z,23.20
2019-01-23T07:09:33.411Z,23.70
2019-01-23T07:10:33.366Z,24.50
2019-01-23T07:11:33.324Z,24.30
2019-01-23T07:12:33.282Z,25.50
2019-01-23T07:13:33.238Z,25.00
2019-01-23T07:14:33.188Z,25.60
2019-01-23T07:15:33.142Z,25.30
2019-01-23T07:16:33.124Z,25.90
2019-01-23T07:17:33.067Z,25.20
2019-01-23T07:18:33.011Z,26.00
2019-01-23T07:19:32.981Z,24.60
2019-01-23T07:20:32.919Z,25.80
2019-01-23T07:21:32.870Z,26.70
2019-01-23T07:22:32.824Z,24.90
2019-01-23T07:23:32.813Z,25.00
2019-01-23T07:24:32.737Z,25.00
2019-01-23T07:25:32.693Z,25.80
2019-01-23T07:26:32.648Z,25.60
2019-01-23T07:27:32.605Z,25.40
2019-01-23T07:28:32.554Z,25.40
2019-01-23T07:29:32.507Z,24.90
2019-01-23T07:30:32.469Z,25.20
2019-01-23T07:31:32.422Z,26.10
2019-01-23T07:32:32.373Z,24.30
2019-01-23T07:33:32.324Z,23.90
2019-01-23T07:34:32.281Z,23.80
2019-01-23T07:35:32.237Z,24.30
2019-01-23T07:36:32.196Z,24.90
2019-01-23T07:37:32.152Z,24.60
2019-01-23T07:38:32.107Z,24.90
2019-01-23T07:39:32.072Z,25.50
2019-01-23T07:40:32.012Z,24.40
2019-01-23T07:41:31.963Z,25.80
2019-01-23T07:42:31.923Z,24.70
2019-01-23T07:43:31.875Z,23.90
2019-01-23T07:44:31.835Z,24.00
2019-01-23T07:45:31.787Z,24.60
2019-01-23T07:46:31.735Z,25.10
2019-01-23T07:47:31.693Z,23.60
2019-01-23T07:48:31.650Z,26.40
2019-01-23T07:49:31.611Z,24.00
2019-01-23T07:50:31.561Z,24.00
2019-01-23T07:51:31.514Z,26.00
2019-01-23T07:52:31.469Z,22.60
2019-01-23T07:53:31.419Z,23.90
2019-01-23T07:54:31.377Z,24.50
2019-01-23T07:55:31.333Z,24.50
2019-01-23T07:56:31.291Z,24.50
2019-01-23T07:57:31.244Z,24.90
2019-01-23T07:58:31.202Z,25.00
2019-01-23T07:59:31.151Z,24.40
2019-01-23T08:00:31.486Z,25.10
2019-01-23T08:01:31.059Z,23.00
2019-01-23T08:02:31.023Z,24.00
2019-01-23T08:03:30.982Z,24.40
2019-01-23T08:04:30.928Z,25.10
2019-01-23T08:05:30.879Z,24.30
2019-01-23T08:06:30.832Z,25.90
2019-01-23T08:07:30.789Z,25.00
2019-01-23T08:08:30.751Z,23.90
2019-01-23T08:09:30.703Z,24.20
2019-01-23T08:10:30.660Z,25.40
2019-01-23T08:11:30.611Z,24.00
2019-01-23T08:12:30.564Z,26.10
2019-01-23T08:13:30.514Z,24.90
2019-01-23T08:14:30.471Z,25.40
2019-01-23T08:15:30.427Z,24.80
2019-01-23T08:16:30.384Z,26.10
2019-01-23T08:17:32.964Z,26.10
2019-01-23T08:18:30.290Z,26.50
2019-01-23T08:19:30.246Z,25.50
2019-01-23T08:20:30.207Z,26.80
2019-01-23T08:21:30.161Z,25.60
2019-01-23T08:22:30.115Z,26.00
2019-01-23T08:23:30.071Z,26.30
2019-01-23T08:24:30.022Z,26.60
2019-01-23T08:25:29.974Z,25.80
2019-01-23T08:26:29.928Z,27.60
2019-01-23T08:27:29.890Z,26.20
2019-01-23T08:28:29.845Z,26.20
2019-01-23T08:29:29.799Z,26.90
2019-01-23T08:30:29.755Z,26.50
2019-01-23T08:31:29.707Z,27.30
2019-01-23T08:32:29.661Z,27.00
2019-01-23T08:33:29.612Z,26.40
2019-01-23T08:34:29.575Z,27.10
2019-01-23T08:35:29.527Z,26.50
2019-01-23T08:36:29.495Z,28.00
2019-01-23T08:37:29.435Z,27.50
2019-01-23T08:38:29.388Z,28.00
2019-01-23T08:39:29.345Z,27.50
2019-01-23T08:40:29.303Z,27.10
2019-01-23T08:41:29.260Z,26.60
2019-01-23T08:42:29.215Z,27.40
2019-01-23T08:43:29.214Z,28.30
2019-01-23T08:44:29.121Z,28.20
2019-01-23T08:45:29.078Z,27.60
2019-01-23T08:46:29.033Z,25.80
2019-01-23T08:47:28.986Z,28.60
2019-01-23T08:48:28.946Z,27.50
2019-01-23T08:49:28.901Z,27.50
2019-01-23T08:50:28.852Z,27.20
2019-01-23T08:51:28.811Z,27.20
2019-01-23T08:52:28.762Z,28.20
2019-01-23T08:53:28.717Z,27.90
2019-01-23T08:54:28.694Z,28.30
2019-01-23T08:55:28.626Z,27.30
2019-01-23T08:56:28.583Z,28.10
2019-01-23T08:57:28.531Z,28.10
2019-01-23T08:58:28.494Z,27.70
2019-01-23T08:59:28.443Z,28.00
2019-01-23T09:00:28.404Z,26.90
2019-01-23T09:01:28.357Z,28.00
2019-01-23T09:02:28.312Z,25.90
2019-01-23T09:03:28.265Z,26.30
2019-01-23T09:04:28.219Z,27.30
2019-01-23T09:05:28.172Z,26.40
2019-01-23T09:06:28.143Z,27.30
2019-01-23T09:07:28.086Z,26.90
2019-01-23T09:08:28.040Z,26.60
2019-01-23T09:09:27.991Z,25.10
2019-01-23T09:10:27.952Z,26.80
2019-01-23T09:11:27.904Z,26.70
2019-01-23T09:12:27.864Z,27.00
2019-01-23T09:13:27.817Z,26.20
2019-01-23T09:14:27.773Z,26.20
2019-01-23T09:15:27.726Z,25.70
2019-01-23T09:16:27.679Z,26.20
2019-01-23T09:17:27.635Z,26.10
2019-01-23T09:18:27.588Z,27.40
2019-01-23T09:19:27.544Z,27.10
2019-01-23T09:20:27.503Z,26.50
2019-01-23T09:21:27.459Z,27.30
2019-01-23T09:22:27.407Z,28.00
2019-01-23T09:23:27.364Z,26.40
2019-01-23T09:24:27.322Z,25.80
2019-01-23T09:25:27.280Z,26.20
2019-01-23T09:26:27.234Z,27.40
2019-01-23T09:27:27.187Z,26.90
2019-01-23T09:28:27.144Z,27.00
2019-01-23T09:29:27.098Z,26.30
2019-01-23T09:30:27.050Z,26.60
2019-01-23T09:31:27.022Z,27.10
2019-01-23T09:32:26.989Z,27.60
2019-01-23T09:33:26.918Z,26.20
2019-01-23T09:34:26.874Z,27.80
2019-01-23T09:35:26.843Z,27.40
2019-01-23T09:36:26.783Z,26.00
2019-01-23T09:37:26.738Z,26.80
2019-01-23T09:38:26.693Z,26.80
2019-01-23T09:39:26.651Z,26.40
2019-01-23T09:40:26.603Z,27.50
2019-01-23T09:41:26.565Z,27.20
2019-01-23T09:42:26.512Z,27.90
2019-01-23T09:43:26.469Z,26.80
2019-01-23T09:44:26.427Z,26.80
2019-01-23T09:45:26.382Z,27.20
2019-01-23T09:46:26.335Z,27.60
2019-01-23T09:47:26.294Z,26.50
2019-01-23T09:48:26.244Z,27.30
2019-01-23T09:49:26.198Z,28.70
2019-01-23T09:50:26.154Z,27.50
2019-01-23T09:51:26.106Z,26.90
2019-01-23T09:52:26.068Z,26.40
2019-01-23T09:53:26.024Z,27.00
2019-01-23T09:54:25.976Z,27.70
2019-01-23T09:55:25.942Z,27.70
2019-01-23T09:56:25.887Z,27.60
2019-01-23T09:57:25.841Z,28.00
2019-01-23T09:58:25.797Z,28.10
2019-01-23T09:59:25.756Z,27.60
2019-01-23T10:00:25.704Z,28.70
2019-01-23T10:01:25.660Z,26.90
2019-01-23T10:02:25.616Z,26.10
2019-01-23T10:03:25.568Z,27.30
2019-01-23T10:04:25.530Z,27.10
2019-01-23T10:05:25.483Z,27.70
2019-01-23T10:20:02.695Z,20.60
2019-01-23T10:21:02.617Z,21.20
2019-01-23T10:22:02.577Z,24.50
2019-01-23T10:23:02.516Z,26.70
2019-01-23T10:24:02.470Z,26.80
2019-01-23T10:25:02.426Z,27.90
2019-01-23T10:26:02.380Z,28.00
2019-01-23T10:27:02.335Z,26.90
2019-01-23T10:28:02.288Z,26.50
2019-01-23T10:29:02.238Z,25.70
2019-01-23T10:30:02.250Z,27.10
2019-01-23T10:31:06.546Z,25.40
2019-01-23T10:32:02.101Z,27.20
2019-01-23T10:33:02.059Z,27.80
2019-01-23T10:34:02.013Z,26.40
2019-01-23T10:35:01.969Z,26.00
2019-01-23T10:36:01.921Z,27.30
2019-01-23T10:37:01.872Z,27.30
2019-01-23T10:38:01.823Z,27.10
2019-01-23T10:39:01.786Z,27.20
2019-01-23T10:40:01.737Z,26.20
2019-01-23T10:41:01.690Z,25.20
2019-01-23T10:42:01.643Z,25.70
2019-01-23T10:43:01.598Z,26.90
2019-01-23T10:44:01.554Z,28.30
2019-01-23T10:45:01.514Z,27.10
2019-01-23T10:46:01.468Z,27.00
2019-01-23T10:47:01.424Z,25.70
2019-01-23T10:48:01.379Z,26.00
2019-01-23T10:49:01.332Z,25.30
2019-01-23T10:50:01.283Z,26.30
2019-01-23T10:51:01.240Z,25.40
2019-01-23T10:52:01.201Z,25.10
2019-01-23T10:53:01.152Z,26.30
2019-01-23T10:54:01.113Z,26.60
2019-01-23T10:55:01.063Z,26.00
2019-01-23T10:56:01.021Z,26.70
2019-01-23T10:57:00.973Z,25.20
2019-01-23T10:58:00.931Z,26.20
2019-01-23T10:59:00.889Z,26.30
2019-01-23T11:00:00.843Z,25.60
2019-01-23T11:01:00.792Z,25.50
2019-01-23T11:02:00.745Z,25.50
2019-01-23T11:03:00.707Z,25.90
2019-01-23T11:04:00.658Z,26.10
2019-01-23T11:05:00.619Z,26.20
2019-01-23T11:06:00.576Z,25.70
2019-01-23T11:07:00.531Z,26.40
2019-01-23T11:08:00.485Z,26.50
2019-01-23T11:09:00.436Z,26.90
2019-01-23T11:10:00.393Z,25.90
2019-01-23T11:11:00.350Z,25.20
2019-01-23T11:12:00.306Z,26.10
2019-01-23T11:13:00.259Z,25.30
2019-01-23T11:14:00.213Z,25.50
2019-01-23T11:15:00.183Z,25.80
2019-01-23T11:16:00.126Z,25.90
2019-01-23T11:17:00.083Z,25.80
2019-01-23T11:18:00.179Z,24.60
2019-01-23T11:18:59.999Z,25.30
2019-01-23T11:19:59.949Z,25.50
2019-01-23T11:20:59.899Z,25.40
2019-01-23T11:21:59.857Z,24.50
2019-01-23T11:22:59.822Z,25.10
2019-01-23T11:23:59.765Z,24.70
2019-01-23T11:24:59.727Z,26.20
2019-01-23T11:25:59.683Z,25.20
2019-01-23T11:26:59.636Z,25.60
2019-01-23T11:27:59.589Z,25.10
2019-01-23T11:28:59.549Z,25.70
2019-01-23T11:29:59.504Z,26.20
2019-01-23T11:30:59.459Z,25.20
2019-01-23T11:31:59.417Z,26.00
2019-01-23T11:32:59.369Z,25.90
2019-01-23T11:33:59.327Z,26.60
2019-01-23T11:34:59.280Z,24.10
2019-01-23T11:35:59.232Z,25.50
2019-01-23T11:36:59.194Z,24.50
2019-01-23T11:37:59.148Z,25.10
2019-01-23T11:38:59.107Z,25.60
2019-01-23T11:39:59.060Z,25.90
2019-01-23T11:40:59.011Z,24.70
2019-01-23T11:41:58.969Z,26.70
2019-01-23T11:42:58.929Z,24.70
2019-01-23T11:43:58.884Z,25.10
2019-01-23T11:44:58.833Z,25.70
2019-01-23T11:45:58.792Z,26.50
2019-01-23T11:46:58.747Z,25.70
2019-01-23T11:47:58.719Z,25.20
2019-01-23T11:48:58.663Z,24.60
2019-01-23T11:49:58.621Z,24.50
2019-01-23T11:50:58.573Z,25.00
2019-01-23T11:51:58.531Z,24.00
2019-01-23T11:52:58.479Z,24.40
2019-01-23T11:53:58.437Z,23.60
2019-01-23T11:54:58.394Z,24.00
2019-01-23T11:55:58.346Z,22.80
2019-01-23T11:56:58.312Z,23.10
2019-01-23T11:57:58.262Z,23.00
2019-01-23T11:58:58.216Z,24.10
2019-01-23T11:59:58.169Z,24.00
2019-01-23T12:00:58.132Z,24.30
2019-01-23T12:01:58.085Z,24.50
2019-01-23T12:02:58.042Z,23.90
2019-01-23T12:03:57.998Z,23.30
2019-01-23T12:04:57.948Z,24.30
2019-01-23T12:05:57.906Z,24.20
2019-01-23T12:06:57.867Z,24.50
2019-01-23T12:07:57.815Z,23.90
2019-01-23T12:08:57.782Z,23.70
2019-01-23T12:09:57.732Z,23.70
2019-01-23T12:10:58.053Z,22.40
2019-01-23T12:11:57.663Z,23.20
2019-01-23T12:12:57.600Z,23.90
2019-01-23T12:13:57.592Z,23.90
2019-01-23T12:14:57.511Z,23.10
2019-01-23T12:15:57.469Z,24.80
2019-01-23T12:16:57.892Z,24.80
2019-01-23T12:17:57.377Z,24.50
2019-01-23T12:18:57.332Z,25.00
2019-01-23T12:19:57.285Z,24.50
2019-01-23T12:20:57.249Z,25.40
2019-01-23T12:21:57.202Z,24.00
2019-01-23T12:22:57.171Z,24.80
2019-01-23T12:23:58.421Z,24.00
2019-01-23T12:24:57.066Z,24.40
2019-01-23T12:25:57.026Z,24.40
2019-01-23T12:26:56.981Z,23.30
2019-01-23T12:27:56.934Z,24.50
2019-01-23T12:28:56.896Z,25.20
2019-01-23T12:29:56.850Z,24.90
2019-01-23T12:30:56.805Z,25.90
2019-01-23T12:31:56.764Z,25.80
2019-01-23T12:32:56.725Z,25.60
2019-01-23T12:33:56.675Z,26.20
2019-01-23T12:34:56.631Z,27.20
2019-01-23T12:35:56.588Z,27.30
2019-01-23T12:36:56.538Z,27.30
2019-01-23T12:37:56.495Z,26.60
2019-01-23T12:38:56.455Z,26.90
2019-01-23T12:39:56.406Z,26.40
2019-01-23T12:40:56.375Z,26.90
2019-01-23T12:41:56.323Z,27.30
2019-01-23T12:42:56.279Z,27.00
2019-01-23T12:43:56.237Z,27.50
2019-01-23T12:44:56.187Z,27.30
2019-01-23T12:45:56.145Z,27.60
2019-01-23T12:46:56.111Z,27.30
2019-01-23T12:47:56.068Z,26.00
2019-01-23T12:48:56.011Z,27.90
2019-01-23T12:49:55.968Z,26.10
2019-01-23T12:50:55.925Z,28.10
2019-01-23T12:51:55.886Z,26.70
2019-01-23T12:52:55.845Z,28.00
2019-01-23T12:53:55.795Z,27.40
2019-01-23T12:54:55.750Z,27.40
2019-01-23T12:55:55.710Z,26.80
2019-01-23T12:56:55.660Z,27.10
2019-01-23T12:57:55.651Z,26.90
2019-01-23T12:58:55.571Z,27.90
2019-01-23T12:59:55.524Z,27.10
2019-01-23T13:00:55.488Z,27.70
2019-01-23T13:01:55.440Z,26.90
2019-01-23T13:02:55.394Z,27.50
2019-01-23T13:03:55.347Z,28.20
2019-01-23T13:04:55.322Z,26.00
2019-01-23T13:05:55.267Z,27.20
2019-01-23T13:06:55.221Z,27.10
2019-01-23T13:07:55.176Z,20.60
2019-01-23T13:08:55.126Z,34.90
2019-01-23T13:09:55.084Z,43.00
2019-01-23T13:10:55.042Z,41.50
2019-01-23T13:11:54.994Z,31.50
2019-01-23T13:12:54.960Z,27.80
2019-01-23T13:13:54.907Z,27.10
2019-01-23T13:14:54.871Z,27.60
2019-01-23T13:15:54.827Z,26.30
2019-01-23T13:16:54.769Z,27.60
2019-01-23T13:17:54.728Z,28.00
2019-01-23T13:18:54.689Z,28.20
2019-01-23T13:19:54.644Z,27.70